KDBN/DBN METAR and TAF weather

Enter ICAO airport designator
Station Type Date Time Source
KDBN METAR 2019/06/18 17:15 UTC NOAA

KDBN 181715Z AUTO 00000KT 10SM CLR 31/20 A3000 RMK AO2 LTG DSNT W


Station Type Date Time Source
KDBN Decoded METAR 2019/06/18 17:15 UTC NOAA

Dublin, W H 'Bud' Barron Airport, GA, United States (KDBN) 32-33-52N 082-59-06W
Jun 18, 2019 - 01:15 PM EDT / 2019.06.18 1715 UTC
Wind: Calm:0
Visibility: 10 mile(s):0
Sky conditions: clear
Weather: Lightning observed
Temperature: 87 F (31 C)
Dew Point: 68 F (20 C)
Relative Humidity: 52%
Pressure (altimeter): 30 in. Hg (1015 hPa)
ob: KDBN 181715Z AUTO 00000KT 10SM CLR 31/20 A3000 RMK AO2 LTG DSNT W
cycle: 17

Station Type Date Time Source
KDBN TAF UTC NOAA

Error!

Example: see airport list